Time;durP1;ratioP1;P1;durP2;ratioP2;P2;SDS_P1;SDS_P2;PMS_P1;PMS_P2;Temp;Humidity;BMP_temperature;BMP_pressure;BME280_temperature;BME280_humidity;BME280_pressure;Samples;Min_cycle;Max_cycle;Signal;HPM_P1;HPM_P2
2024/04/24 00:00:31;;;;;;;21.73;13.32;;;5.40;84.50;;;;;;5416490;26;20799;-75
2024/04/24 00:03:02;;;;;;;18.77;12.63;;;5.40;83.70;;;;;;5416049;26;20255;-74
2024/04/24 00:05:30;;;;;;;17.15;12.27;;;5.40;82.90;;;;;;5416503;26;20259;-76
2024/04/24 00:08:02;;;;;;;15.85;12.23;;;5.40;82.70;;;;;;5417080;26;20698;-76
2024/04/24 00:10:31;;;;;;;20.02;11.73;;;5.40;82.70;;;;;;5416475;26;20216;-77
2024/04/24 00:12:59;;;;;;;15.55;12.00;;;5.30;82.50;;;;;;5416021;26;20335;-76
2024/04/24 00:15:28;;;;;;;17.90;11.85;;;5.30;83.40;;;;;;5416593;26;20303;-75
2024/04/24 00:17:56;;;;;;;19.48;12.73;;;5.30;83.10;;;;;;5416165;26;20259;-77
2024/04/24 00:20:25;;;;;;;17.88;12.85;;;5.30;82.80;;;;;;5416195;26;20213;-76
2024/04/24 00:22:53;;;;;;;15.82;12.02;;;5.30;83.20;;;;;;5415996;26;20220;-76
2024/04/24 00:25:25;;;;;;;19.27;13.40;;;5.30;83.30;;;;;;5415769;26;20221;-76
2024/04/24 00:27:57;;;;;;;17.15;12.57;;;5.30;82.80;;;;;;5415947;26;20255;-75
2024/04/24 00:30:26;;;;;;;18.30;12.68;;;5.30;83.00;;;;;;5415967;26;20267;-76
2024/04/24 00:32:55;;;;;;;22.83;13.93;;;5.30;83.30;;;;;;5415942;26;20212;-76
2024/04/24 00:35:24;;;;;;;22.02;12.52;;;5.30;82.50;;;;;;5416214;26;20264;-74
2024/04/24 00:37:52;;;;;;;15.88;11.57;;;5.20;82.60;;;;;;5419344;26;20212;-76
2024/04/24 00:40:21;;;;;;;19.75;12.88;;;5.20;83.40;;;;;;5419350;26;20224;-75
2024/04/24 00:42:52;;;;;;;21.13;11.85;;;5.20;82.80;;;;;;5419293;26;20221;-75
2024/04/24 00:45:21;;;;;;;18.40;12.15;;;5.10;83.00;;;;;;5419235;26;20216;-75
2024/04/24 00:47:51;;;;;;;19.70;13.20;;;5.00;84.20;;;;;;5420150;26;20255;-76
2024/04/24 00:50:20;;;;;;;20.20;12.80;;;5.00;84.50;;;;;;5419484;26;20259;-75
2024/04/24 00:52:48;;;;;;;16.38;12.13;;;5.00;84.20;;;;;;5419259;26;20267;-75
2024/04/24 00:55:17;;;;;;;17.05;12.32;;;4.90;84.10;;;;;;5419129;26;20216;-75
2024/04/24 00:57:46;;;;;;;17.20;12.15;;;4.80;84.70;;;;;;5419071;26;20229;-76
2024/04/24 01:00:18;;;;;;;18.40;11.63;;;4.70;84.60;;;;;;5419417;26;20690;-76
2024/04/24 01:02:47;;;;;;;16.48;11.07;;;4.70;85.30;;;;;;5419310;26;20257;-76
2024/04/24 01:05:14;;;;;;;17.10;11.60;;;4.60;85.90;;;;;;5418905;26;20216;-75
2024/04/24 01:07:43;;;;;;;19.08;12.10;;;4.60;86.60;;;;;;5419189;26;20224;-76
2024/04/24 01:10:17;;;;;;;14.13;10.00;;;4.60;86.70;;;;;;5419793;26;20216;-75
2024/04/24 01:12:48;;;;;;;18.90;11.80;;;4.60;85.30;;;;;;5419125;26;20220;-75
2024/04/24 01:15:20;;;;;;;15.57;11.43;;;4.60;85.60;;;;;;5418891;26;20244;-75
2024/04/24 01:17:51;;;;;;;15.98;11.35;;;4.70;86.60;;;;;;5418918;26;20749;-76
2024/04/24 01:20:25;;;;;;;16.77;11.98;;;4.70;86.00;;;;;;5418924;26;20562;-76
2024/04/24 01:23:14;;;;;;;17.40;11.52;;;4.70;86.10;;;;;;5418802;26;20280;-76
2024/04/24 01:25:48;;;;;;;17.15;11.88;;;4.70;86.70;;;;;;5419057;26;20284;-75
2024/04/24 01:28:20;;;;;;;16.00;10.40;;;4.60;86.00;;;;;;5419000;26;20212;-76
2024/04/24 01:30:49;;;;;;;14.45;11.40;;;4.60;86.30;;;;;;5419060;26;20263;-76
2024/04/24 01:33:17;;;;;;;16.63;11.05;;;4.60;86.70;;;;;;5418526;26;20252;-77
2024/04/24 01:35:46;;;;;;;14.15;10.20;;;4.60;86.60;;;;;;5418746;26;20235;-75
2024/04/24 01:38:14;;;;;;;17.45;11.05;;;4.60;86.70;;;;;;5418711;26;20212;-77
2024/04/24 01:40:43;;;;;;;14.88;10.70;;;4.60;86.80;;;;;;5418520;26;20255;-76
2024/04/24 01:43:12;;;;;;;15.90;11.32;;;4.60;87.60;;;;;;5418754;26;20216;-75
2024/04/24 01:45:44;;;;;;;16.55;10.70;;;4.60;87.30;;;;;;5418376;26;20229;-75
2024/04/24 01:48:10;;;;;;;16.90;10.90;;;4.60;87.70;;;;;;5417478;26;20576;-75
2024/04/24 01:50:38;;;;;;;16.87;11.80;;;4.60;87.30;;;;;;5418414;26;20268;-76
2024/04/24 01:53:07;;;;;;;18.65;12.52;;;4.70;87.40;;;;;;5418592;26;20443;-75
2024/04/24 01:55:35;;;;;;;17.25;11.77;;;4.70;87.30;;;;;;5418273;26;20216;-76
2024/04/24 01:58:04;;;;;;;14.93;10.15;;;4.80;86.70;;;;;;5418309;26;20695;-77
2024/04/24 02:00:33;;;;;;;16.05;11.00;;;4.80;86.00;;;;;;5418192;26;20216;-76
2024/04/24 02:03:01;;;;;;;14.35;9.20;;;4.80;86.10;;;;;;5418368;26;20212;-76
2024/04/24 02:05:30;;;;;;;14.45;9.55;;;4.80;86.40;;;;;;5418017;26;20662;-76
2024/04/24 02:07:58;;;;;;;13.65;9.43;;;4.80;86.00;;;;;;5418111;26;20216;-75
2024/04/24 02:10:27;;;;;;;14.15;9.85;;;4.80;86.00;;;;;;5418127;26;20212;-76
2024/04/24 02:12:56;;;;;;;14.68;9.63;;;4.70;86.40;;;;;;5418108;26;20251;-75
2024/04/24 02:15:24;;;;;;;16.88;11.05;;;4.80;86.60;;;;;;5418137;26;20212;-75
2024/04/24 02:17:53;;;;;;;14.65;10.05;;;4.80;86.30;;;;;;5417910;26;20216;-77
2024/04/24 02:20:24;;;;;;;14.25;10.75;;;4.80;86.60;;;;;;5417866;26;20539;-76
2024/04/24 02:22:53;;;;;;;13.70;9.80;;;4.70;86.50;;;;;;5418006;26;20216;-75
2024/04/24 02:25:36;;;;;;;17.27;12.15;;;4.80;86.60;;;;;;5417839;26;20255;-74
2024/04/24 02:28:05;;;;;;;15.45;9.35;;;4.80;86.50;;;;;;5417827;26;20536;-76
2024/04/24 02:30:34;;;;;;;14.65;10.20;;;4.80;86.50;;;;;;5417773;26;20221;-76
2024/04/24 02:33:03;;;;;;;12.98;9.13;;;4.70;86.20;;;;;;5417743;26;20215;-75
2024/04/24 02:35:34;;;;;;;13.10;10.02;;;4.70;86.50;;;;;;5417684;26;20212;-75
2024/04/24 02:38:03;;;;;;;17.02;10.38;;;4.70;87.40;;;;;;5417573;26;20570;-75
2024/04/24 02:40:31;;;;;;;13.68;9.63;;;4.70;86.70;;;;;;5417694;26;20217;-75
2024/04/24 02:43:00;;;;;;;13.05;8.93;;;4.70;87.00;;;;;;5418194;26;20220;-76
2024/04/24 02:45:29;;;;;;;16.40;12.48;;;4.70;86.60;;;;;;5417974;26;20216;-75
2024/04/24 02:47:57;;;;;;;15.82;10.10;;;4.60;87.10;;;;;;5417707;26;20255;-76
2024/04/24 02:50:27;;;;;;;13.23;9.48;;;4.50;87.80;;;;;;5418125;26;20255;-76
2024/04/24 02:52:58;;;;;;;16.40;10.57;;;4.50;88.00;;;;;;5417510;26;20312;-75
2024/04/24 02:55:27;;;;;;;13.45;9.25;;;4.40;88.60;;;;;;5417688;26;20216;-76
2024/04/24 02:57:55;;;;;;;13.13;10.07;;;4.40;88.90;;;;;;5417222;26;20232;-75
2024/04/24 03:00:24;;;;;;;14.40;10.07;;;4.40;88.50;;;;;;5417544;26;20220;-76
2024/04/24 03:02:52;;;;;;;15.68;9.60;;;4.40;89.00;;;;;;5418041;26;20221;-77
2024/04/24 03:05:21;;;;;;;13.40;9.40;;;4.40;89.30;;;;;;5417570;26;20220;-76
2024/04/24 03:07:50;;;;;;;17.13;10.40;;;4.40;89.40;;;;;;5417245;26;20251;-75
2024/04/24 03:10:21;;;;;;;15.70;11.00;;;4.40;89.70;;;;;;5417229;26;20251;-75
2024/04/24 03:12:49;;;;;;;14.63;10.00;;;4.50;89.00;;;;;;5417340;26;20220;-76
2024/04/24 03:15:18;;;;;;;14.85;10.25;;;4.50;89.00;;;;;;5417360;26;20212;-75
2024/04/24 03:17:46;;;;;;;14.88;9.80;;;4.50;89.20;;;;;;5416999;26;20259;-76
2024/04/24 03:20:15;;;;;;;15.75;11.05;;;4.60;89.20;;;;;;5417240;26;20216;-75
2024/04/24 03:22:44;;;;;;;12.95;9.15;;;4.60;88.40;;;;;;5417172;26;20732;-76
2024/04/24 03:25:12;;;;;;;13.93;9.75;;;4.70;88.80;;;;;;5417006;26;20213;-75
2024/04/24 03:27:46;;;;;;;16.40;12.57;;;4.70;88.20;;;;;;5416939;26;20216;-76
2024/04/24 03:30:15;;;;;;;13.70;9.73;;;4.70;87.10;;;;;;5417286;26;20583;-75
2024/04/24 03:32:43;;;;;;;14.63;11.38;;;4.70;87.40;;;;;;5417102;26;20255;-75
2024/04/24 03:35:12;;;;;;;15.90;11.57;;;4.70;87.40;;;;;;5417034;26;20267;-76
2024/04/24 03:37:41;;;;;;;12.70;9.57;;;4.70;87.70;;;;;;5416651;26;20217;-75
2024/04/24 03:40:10;;;;;;;14.60;9.35;;;4.80;87.50;;;;;;5416658;26;20393;-75
2024/04/24 03:42:38;;;;;;;14.70;9.70;;;4.80;86.80;;;;;;5416721;26;20263;-75
2024/04/24 03:45:10;;;;;;;14.57;9.02;;;4.90;87.10;;;;;;5416648;26;20212;-76
2024/04/24 03:47:38;;;;;;;14.43;9.85;;;4.90;86.40;;;;;;5416958;26;20737;-75
2024/04/24 03:50:08;;;;;;;12.45;8.93;;;4.90;85.40;;;;;;5416588;26;20536;-76
2024/04/24 03:52:37;;;;;;;11.52;7.95;;;4.90;84.70;;;;;;5416480;26;20262;-75
2024/04/24 03:55:06;;;;;;;11.70;8.68;;;4.80;85.20;;;;;;5416532;26;20216;-76
2024/04/24 03:57:34;;;;;;;16.77;10.20;;;4.80;85.40;;;;;;5416647;26;20298;-76
2024/04/24 04:00:03;;;;;;;15.05;8.63;;;4.80;86.60;;;;;;5416462;26;20529;-75
2024/04/24 04:02:34;;;;;;;12.43;9.30;;;4.90;86.30;;;;;;5416256;26;20217;-76
2024/04/24 04:05:02;;;;;;;14.57;9.55;;;4.90;86.40;;;;;;5416264;26;20217;-75
2024/04/24 04:07:31;;;;;;;12.45;9.75;;;4.90;85.20;;;;;;5416321;26;20217;-76
2024/04/24 04:10:00;;;;;;;13.25;9.48;;;4.90;85.40;;;;;;5416180;26;20251;-75
2024/04/24 04:12:26;;;;;;;12.68;8.60;;;5.00;86.30;;;;;;5419728;26;20574;-75
2024/04/24 04:14:55;;;;;;;13.20;8.60;;;5.00;85.90;;;;;;5419873;26;20220;-74
2024/04/24 04:17:23;;;;;;;13.13;9.55;;;5.10;85.40;;;;;;5419507;26;20597;-76
2024/04/24 04:19:54;;;;;;;12.38;8.90;;;5.10;84.40;;;;;;5419868;26;20220;-75
2024/04/24 04:22:23;;;;;;;10.70;8.57;;;5.20;84.00;;;;;;5419601;26;20579;-75
2024/04/24 04:24:52;;;;;;;12.07;9.13;;;5.20;83.30;;;;;;5419508;26;20220;-76
2024/04/24 04:27:20;;;;;;;12.57;9.43;;;5.20;83.20;;;;;;5419529;26;20272;-76
2024/04/24 04:29:49;;;;;;;13.88;9.65;;;5.20;83.20;;;;;;5419505;26;20216;-76
2024/04/24 04:32:17;;;;;;;10.52;8.65;;;5.20;83.90;;;;;;5419477;26;20538;-75
2024/04/24 04:34:47;;;;;;;12.60;9.13;;;5.20;82.50;;;;;;5419520;26;20251;-75
2024/04/24 04:37:18;;;;;;;11.65;9.90;;;5.20;82.70;;;;;;5418908;26;20259;-75
2024/04/24 04:39:47;;;;;;;11.05;9.15;;;5.20;83.40;;;;;;5419217;26;20240;-75
2024/04/24 04:42:16;;;;;;;13.38;9.48;;;5.20;82.60;;;;;;5416662;26;20216;-81
2024/04/24 04:44:44;;;;;;;14.70;10.88;;;5.30;83.60;;;;;;5418558;26;20330;-75
2024/04/24 04:47:13;;;;;;;13.95;10.80;;;5.30;83.00;;;;;;5418744;26;20228;-75
2024/04/24 04:49:42;;;;;;;14.95;8.95;;;5.30;83.10;;;;;;5418683;26;20217;-75
2024/04/24 04:52:08;;;;;;;13.57;10.90;;;5.30;82.80;;;;;;5418278;26;20216;-76
2024/04/24 04:54:39;;;;;;;14.00;9.52;;;5.30;83.10;;;;;;5415925;26;20259;-76
2024/04/24 04:57:08;;;;;;;12.63;8.18;;;5.30;83.40;;;;;;5416097;26;20279;-76
2024/04/24 04:59:37;;;;;;;14.60;9.20;;;5.40;83.50;;;;;;5414366;26;20263;-76
2024/04/24 05:02:05;;;;;;;12.27;9.10;;;5.40;83.30;;;;;;5417318;26;20244;-75
2024/04/24 05:04:34;;;;;;;12.05;8.93;;;5.40;83.00;;;;;;5417741;26;20554;-75
2024/04/24 05:07:03;;;;;;;11.20;8.05;;;5.40;83.30;;;;;;5416873;26;20702;-76
2024/04/24 05:09:32;;;;;;;12.00;8.52;;;5.50;83.00;;;;;;5391078;26;20228;-76
2024/04/24 05:12:03;;;;;;;11.60;8.30;;;5.50;82.20;;;;;;5418417;26;20694;-76
2024/04/24 05:14:32;;;;;;;11.27;8.48;;;5.60;82.30;;;;;;5417078;26;20266;-76
2024/04/24 05:17:00;;;;;;;11.10;8.18;;;5.50;81.60;;;;;;5417871;26;20221;-75
2024/04/24 05:19:29;;;;;;;10.88;9.32;;;5.60;82.00;;;;;;5416998;26;20593;-75
2024/04/24 05:21:58;;;;;;;11.38;8.25;;;5.60;82.20;;;;;;5416641;26;20244;-75
2024/04/24 05:24:26;;;;;;;12.20;8.38;;;5.60;81.50;;;;;;5417629;26;20335;-75
2024/04/24 05:29:42;;;;;;;12.73;9.18;;;5.60;80.80;;;;;;5419371;26;20767;-77
2024/04/24 05:32:11;;;;;;;10.27;8.35;;;5.60;81.10;;;;;;5417787;26;20570;-76
2024/04/24 05:34:39;;;;;;;11.85;9.07;;;5.70;80.80;;;;;;5416256;26;20343;-76
2024/04/24 05:37:08;;;;;;;12.13;8.95;;;5.70;80.60;;;;;;5416921;26;20232;-75
2024/04/24 05:39:37;;;;;;;12.07;9.48;;;5.70;81.20;;;;;;5417395;26;20254;-75
2024/04/24 05:42:05;;;;;;;12.70;9.45;;;5.80;80.90;;;;;;5417559;26;20325;-77
2024/04/24 05:44:35;;;;;;;14.55;9.40;;;5.80;80.70;;;;;;5416522;26;20329;-74
2024/04/24 05:47:07;;;;;;;12.45;10.07;;;5.80;79.60;;;;;;5417155;26;20224;-74
2024/04/24 05:49:35;;;;;;;11.85;9.75;;;5.80;79.20;;;;;;5417059;26;20220;-76
2024/04/24 05:52:05;;;;;;;15.00;12.93;;;5.80;79.70;;;;;;5417070;26;20737;-76
2024/04/24 05:54:35;;;;;;;14.73;11.48;;;5.80;79.60;;;;;;5414064;26;20344;-82
2024/04/24 05:57:04;;;;;;;13.15;11.50;;;5.80;80.30;;;;;;5404937;26;20553;-75
2024/04/24 05:59:32;;;;;;;12.38;10.27;;;5.80;81.20;;;;;;5416339;26;20263;-75
2024/04/24 06:02:01;;;;;;;12.23;8.13;;;5.80;82.00;;;;;;5416805;26;20229;-75
2024/04/24 06:04:32;;;;;;;11.07;9.15;;;5.90;82.60;;;;;;5414823;26;20271;-75
2024/04/24 06:07:01;;;;;;;10.13;8.13;;;6.00;82.80;;;;;;5412814;26;20228;-76
2024/04/24 06:09:30;;;;;;;11.73;9.13;;;6.00;81.20;;;;;;5414867;26;20325;-76
2024/04/24 06:11:58;;;;;;;10.88;8.23;;;6.10;82.40;;;;;;5415057;26;20985;-74
2024/04/24 06:14:29;;;;;;;14.20;9.07;;;6.10;82.40;;;;;;5415206;26;20855;-75
2024/04/24 06:16:58;;;;;;;11.55;9.07;;;6.20;81.30;;;;;;5414967;26;20279;-76
2024/04/24 06:19:27;;;;;;;13.00;9.98;;;6.30;80.10;;;;;;5410930;26;20228;-74
2024/04/24 06:21:58;;;;;;;10.57;7.90;;;6.30;79.80;;;;;;5415398;26;20275;-75
2024/04/24 06:24:27;;;;;;;11.88;8.82;;;6.30;78.70;;;;;;5415264;26;20232;-75
2024/04/24 06:26:55;;;;;;;14.45;10.63;;;6.30;78.20;;;;;;5414073;26;20232;-75
2024/04/24 06:29:24;;;;;;;12.70;9.70;;;6.30;77.20;;;;;;5415139;26;20579;-79
2024/04/24 06:31:53;;;;;;;16.73;9.40;;;6.20;77.60;;;;;;5403659;26;20275;-76
2024/04/24 06:34:22;;;;;;;12.70;9.05;;;6.30;78.40;;;;;;5416387;26;20247;-76
2024/04/24 06:36:48;;;;;;;14.02;9.43;;;6.30;78.90;;;;;;5417138;26;20228;-79
2024/04/24 06:39:19;;;;;;;12.95;8.50;;;6.30;78.00;;;;;;5417212;26;20638;-76
2024/04/24 06:41:48;;;;;;;14.45;10.65;;;6.30;78.00;;;;;;5418114;26;20216;-75
2024/04/24 06:44:14;;;;;;;13.73;9.23;;;6.40;79.00;;;;;;5416878;26;20346;-75
2024/04/24 06:46:43;;;;;;;11.47;9.13;;;6.40;78.50;;;;;;5417275;26;20216;-76
2024/04/24 06:49:12;;;;;;;12.27;8.75;;;6.50;79.20;;;;;;5417474;26;20450;-75
2024/04/24 06:51:40;;;;;;;12.05;8.93;;;6.50;78.60;;;;;;5417806;26;20212;-75
2024/04/24 06:54:09;;;;;;;11.90;9.85;;;6.60;77.10;;;;;;5417202;26;20212;-76
2024/04/24 06:56:41;;;;;;;11.95;9.10;;;6.60;76.80;;;;;;5417600;26;20228;-75
2024/04/24 06:59:10;;;;;;;12.20;9.65;;;6.60;76.00;;;;;;5417570;26;20534;-76
2024/04/24 07:01:38;;;;;;;12.88;10.00;;;6.70;74.80;;;;;;5417015;26;20255;-75
2024/04/24 07:04:04;;;;;;;12.18;10.88;;;6.60;75.30;;;;;;5417040;26;20212;-76
2024/04/24 07:06:33;;;;;;;12.73;11.43;;;6.70;76.90;;;;;;5417297;26;20220;-76
2024/04/24 07:09:01;;;;;;;12.73;10.32;;;6.70;76.00;;;;;;5416925;26;20255;-76
2024/04/24 07:11:30;;;;;;;12.63;10.27;;;6.70;75.80;;;;;;5416976;26;20336;-75
2024/04/24 07:14:01;;;;;;;12.50;9.35;;;6.70;75.70;;;;;;5417128;26;20733;-76
2024/04/24 07:16:31;;;;;;;13.40;10.20;;;6.70;74.70;;;;;;5416868;26;20212;-75
2024/04/24 07:19:00;;;;;;;12.70;9.90;;;6.70;75.20;;;;;;5417576;26;20243;-76
2024/04/24 07:21:28;;;;;;;12.20;9.48;;;6.70;74.90;;;;;;5416734;26;20255;-76
2024/04/24 07:23:57;;;;;;;14.20;9.98;;;6.80;74.00;;;;;;5416958;26;20243;-75
2024/04/24 07:26:26;;;;;;;12.13;8.43;;;6.80;75.30;;;;;;5416947;26;20220;-75
2024/04/24 07:28:54;;;;;;;13.00;8.93;;;6.90;76.20;;;;;;5416405;26;20267;-76
2024/04/24 07:31:27;;;;;;;13.18;9.30;;;6.90;78.10;;;;;;5416677;26;20221;-76
2024/04/24 07:33:56;;;;;;;13.32;9.15;;;7.00;75.80;;;;;;5417108;26;20385;-77
2024/04/24 07:36:24;;;;;;;12.25;9.52;;;7.10;74.50;;;;;;5416516;26;20526;-76
2024/04/24 07:38:53;;;;;;;12.20;8.90;;;7.20;73.30;;;;;;5416422;26;20255;-75
2024/04/24 07:41:22;;;;;;;12.68;8.52;;;7.30;74.30;;;;;;5416300;26;20504;-77
2024/04/24 07:43:50;;;;;;;10.88;9.25;;;7.30;74.40;;;;;;5416314;26;20759;-76
2024/04/24 07:46:21;;;;;;;11.93;9.77;;;7.40;75.40;;;;;;5418047;26;20541;-76
2024/04/24 07:48:52;;;;;;;13.30;9.60;;;7.50;73.80;;;;;;5419702;26;20216;-75
2024/04/24 07:51:21;;;;;;;11.90;9.00;;;7.60;72.80;;;;;;5419825;26;20217;-77
2024/04/24 07:53:49;;;;;;;12.10;9.07;;;7.70;72.50;;;;;;5419886;26;20255;-77
2024/04/24 07:56:18;;;;;;;14.00;10.35;;;7.90;72.20;;;;;;5419602;26;20216;-76
2024/04/24 07:58:44;;;;;;;12.88;9.77;;;8.00;73.40;;;;;;5419677;26;20250;-77
2024/04/24 08:01:12;;;;;;;13.47;9.40;;;8.20;72.50;;;;;;5419657;26;20675;-76
2024/04/24 08:03:41;;;;;;;9.85;8.73;;;8.40;70.80;;;;;;5419915;26;20454;-76
2024/04/24 08:06:12;;;;;;;11.02;9.55;;;8.50;68.60;;;;;;5420233;26;20212;-75
2024/04/24 08:08:41;;;;;;;13.00;8.98;;;8.70;70.90;;;;;;5419545;26;20220;-77
2024/04/24 08:11:10;;;;;;;12.27;10.65;;;8.80;69.80;;;;;;5419516;26;20761;-76
2024/04/24 08:13:38;;;;;;;10.80;9.65;;;9.00;66.30;;;;;;5419913;26;20221;-77
2024/04/24 08:16:07;;;;;;;10.27;8.55;;;9.00;65.00;;;;;;5419797;26;20351;-76
2024/04/24 08:18:36;;;;;;;10.93;8.48;;;9.10;66.10;;;;;;5419419;26;20220;-76
2024/04/24 08:21:05;;;;;;;11.68;9.80;;;9.20;66.90;;;;;;5419236;26;20313;-76
2024/04/24 08:23:36;;;;;;;10.48;7.80;;;9.30;66.00;;;;;;5419482;26;20690;-77
2024/04/24 08:26:07;;;;;;;11.80;8.95;;;9.40;63.30;;;;;;5420177;26;20217;-76
2024/04/24 08:28:35;;;;;;;11.45;9.95;;;9.40;60.60;;;;;;5419375;26;20213;-76
2024/04/24 08:31:04;;;;;;;11.02;8.57;;;9.50;60.30;;;;;;5419359;26;20217;-76
2024/04/24 08:33:33;;;;;;;9.27;8.23;;;9.40;62.10;;;;;;5419167;26;20266;-76
2024/04/24 08:36:04;;;;;;;12.13;8.57;;;9.50;60.10;;;;;;5419161;26;20220;-76
2024/04/24 08:38:37;;;;;;;12.00;8.57;;;9.60;59.90;;;;;;5419158;26;20386;-76
2024/04/24 08:41:06;;;;;;;10.70;7.68;;;9.60;58.20;;;;;;5419080;26;20216;-75
2024/04/24 08:43:36;;;;;;;11.75;8.80;;;9.60;58.70;;;;;;5419041;26;20216;-76
2024/04/24 08:46:06;;;;;;;11.40;8.30;;;9.70;59.50;;;;;;5419001;26;20255;-76
2024/04/24 08:48:39;;;;;;;9.50;7.35;;;9.70;58.90;;;;;;5419111;26;20213;-76
2024/04/24 08:51:08;;;;;;;10.10;8.07;;;9.70;57.90;;;;;;5419121;26;20338;-76
2024/04/24 08:53:47;;;;;;;10.98;7.82;;;9.70;58.90;;;;;;5419221;26;20331;-76
2024/04/24 08:56:19;;;;;;;10.70;7.82;;;9.90;57.20;;;;;;5418507;26;20255;-76
2024/04/24 08:58:52;;;;;;;9.20;7.30;;;10.00;55.90;;;;;;5418828;26;20687;-76
2024/04/24 09:01:25;;;;;;;9.95;7.22;;;10.00;55.30;;;;;;5418763;26;20255;-76
2024/04/24 09:04:02;;;;;;;10.50;6.95;;;10.10;55.10;;;;;;5419455;26;20212;-76
2024/04/24 09:06:31;;;;;;;10.40;7.70;;;10.00;54.70;;;;;;5418793;26;20216;-75
2024/04/24 09:09:03;;;;;;;9.85;6.78;;;10.00;54.30;;;;;;5418750;26;20541;-75
2024/04/24 09:11:32;;;;;;;11.85;7.22;;;9.90;56.00;;;;;;5418785;26;20220;-76
2024/04/24 09:14:04;;;;;;;9.35;7.88;;;9.90;56.50;;;;;;5418633;26;20220;-76
2024/04/24 09:16:36;;;;;;;11.32;7.43;;;9.90;56.00;;;;;;5418919;26;20212;-76
2024/04/24 09:19:06;;;;;;;7.03;6.30;;;10.00;56.00;;;;;;5418831;26;20220;-76
2024/04/24 09:21:33;;;;;;;11.00;6.65;;;10.00;55.00;;;;;;5418832;26;20325;-77
2024/04/24 09:24:04;;;;;;;9.32;7.43;;;10.10;53.90;;;;;;5418514;26;20220;-76
2024/04/24 09:26:33;;;;;;;8.90;7.07;;;10.20;55.20;;;;;;5419387;26;20220;-76
2024/04/24 09:29:01;;;;;;;9.70;7.50;;;10.30;53.90;;;;;;5418376;26;20212;-75
2024/04/24 09:31:30;;;;;;;8.90;7.30;;;10.30;53.00;;;;;;5418958;26;20212;-76
2024/04/24 09:33:59;;;;;;;9.02;7.30;;;10.30;51.50;;;;;;5418358;26;20244;-75
2024/04/24 09:36:31;;;;;;;11.00;8.25;;;10.40;53.30;;;;;;5418558;26;20220;-74
2024/04/24 09:39:00;;;;;;;10.85;7.45;;;10.50;54.00;;;;;;5418290;26;20252;-75
2024/04/24 09:41:31;;;;;;;8.75;6.65;;;10.60;53.00;;;;;;5418282;26;20213;-76
2024/04/24 09:44:00;;;;;;;7.25;6.03;;;10.80;50.50;;;;;;5418239;26;20255;-75
2024/04/24 09:46:29;;;;;;;9.75;6.75;;;10.70;50.40;;;;;;5418098;26;20251;-75
2024/04/24 09:48:58;;;;;;;10.70;6.93;;;10.90;53.80;;;;;;5418198;26;20540;-75
2024/04/24 09:51:27;;;;;;;7.40;6.20;;;11.10;49.30;;;;;;5418375;26;20796;-76
2024/04/24 09:53:55;;;;;;;6.80;5.90;;;11.10;47.80;;;;;;5418113;26;20454;-76
2024/04/24 09:56:27;;;;;;;7.40;5.72;;;10.90;47.70;;;;;;5417647;26;20525;-76
2024/04/24 09:59:03;;;;;;;9.02;6.95;;;10.90;49.30;;;;;;5417961;26;20212;-76
2024/04/24 10:01:33;;;;;;;7.07;5.90;;;10.80;49.50;;;;;;5418016;26;20212;-75
2024/04/24 10:04:05;;;;;;;8.48;6.35;;;10.80;49.50;;;;;;5417943;26;20358;-75
2024/04/24 10:06:36;;;;;;;7.40;5.45;;;10.90;49.40;;;;;;5418255;26;20217;-75
2024/04/24 10:09:07;;;;;;;7.15;5.60;;;11.00;47.90;;;;;;5416745;26;20259;-76
2024/04/24 10:11:39;;;;;;;7.25;5.35;;;11.10;48.70;;;;;;5417916;26;20256;-75
2024/04/24 10:14:12;;;;;;;6.47;5.53;;;11.20;47.20;;;;;;5418230;26;20259;-76
2024/04/24 10:16:41;;;;;;;5.60;4.13;;;11.30;47.30;;;;;;5418070;26;20221;-76
2024/04/24 10:19:10;;;;;;;5.87;4.07;;;11.30;44.50;;;;;;5418182;26;20254;-76
2024/04/24 10:21:40;;;;;;;5.40;4.40;;;11.20;43.40;;;;;;5417931;26;20450;-76
2024/04/24 10:24:09;;;;;;;6.63;5.20;;;11.20;43.30;;;;;;5417600;26;20403;-74
2024/04/24 10:26:39;;;;;;;8.47;5.93;;;11.20;45.70;;;;;;5417449;26;20450;-77
2024/04/24 10:29:16;;;;;;;7.17;5.00;;;11.40;46.60;;;;;;5417541;26;20454;-76
2024/04/24 10:31:44;;;;;;;8.77;5.75;;;11.50;45.90;;;;;;5417518;26;20458;-77
2024/04/24 10:34:14;;;;;;;7.75;5.50;;;11.30;43.70;;;;;;5417407;26;20218;-76
2024/04/24 10:36:44;;;;;;;7.67;5.83;;;11.30;45.00;;;;;;5417442;26;20260;-76
2024/04/24 10:39:13;;;;;;;7.60;6.60;;;11.40;49.10;;;;;;5417224;26;20454;-76
2024/04/24 10:41:41;;;;;;;7.67;6.00;;;11.40;47.00;;;;;;5417340;26;20831;-77
2024/04/24 10:44:13;;;;;;;7.40;6.00;;;11.60;45.00;;;;;;5417924;26;20455;-75
2024/04/24 10:46:39;;;;;;;10.18;6.20;;;11.40;45.40;;;;;;5417649;26;20457;-77
2024/04/24 10:49:09;;;;;;;7.17;5.03;;;11.50;47.50;;;;;;5417278;26;20267;-76
2024/04/24 10:51:40;;;;;;;6.87;4.87;;;11.70;47.60;;;;;;5417540;26;20487;-76
2024/04/24 10:54:15;;;;;;;8.20;6.00;;;11.90;47.40;;;;;;5417336;26;20987;-75
2024/04/24 10:56:44;;;;;;;7.00;4.60;;;12.10;44.00;;;;;;5417070;26;20860;-76
2024/04/24 10:59:16;;;;;;;7.60;5.80;;;12.10;45.00;;;;;;5417087;26;20783;-76
2024/04/24 11:01:45;;;;;;;6.00;5.10;;;12.10;44.40;;;;;;5417510;26;20510;-75
2024/04/24 11:04:15;;;;;;;6.97;5.17;;;12.10;46.70;;;;;;5417054;26;20446;-75
2024/04/24 11:06:44;;;;;;;6.10;4.30;;;12.20;47.40;;;;;;5417011;26;20457;-75
2024/04/24 11:09:13;;;;;;;6.13;4.63;;;12.40;46.60;;;;;;5417384;26;20442;-77
2024/04/24 11:11:43;;;;;;;6.17;4.60;;;12.50;42.50;;;;;;5417048;26;20456;-75
2024/04/24 11:14:14;;;;;;;7.67;5.17;;;12.40;44.50;;;;;;5417369;26;20534;-75
2024/04/24 11:16:43;;;;;;;7.20;5.33;;;12.50;44.30;;;;;;5416493;26;20515;-75
2024/04/24 11:19:12;;;;;;;5.23;4.30;;;12.70;44.40;;;;;;5417443;26;20450;-75
2024/04/24 11:21:41;;;;;;;4.47;4.00;;;12.90;43.30;;;;;;5415006;26;20515;-75
2024/04/24 11:24:09;;;;;;;7.23;4.53;;;13.00;42.90;;;;;;5416807;26;20521;-76
2024/04/24 11:26:38;;;;;;;7.00;5.20;;;13.20;42.50;;;;;;5416646;26;20814;-76
2024/04/24 11:29:09;;;;;;;5.27;4.10;;;13.40;42.00;;;;;;5416272;26;20517;-76
2024/04/24 11:31:44;;;;;;;7.77;4.73;;;13.40;42.70;;;;;;5416597;26;20462;-76
2024/04/24 11:34:14;;;;;;;6.53;4.90;;;13.60;42.20;;;;;;5416949;26;20789;-76
2024/04/24 11:36:43;;;;;;;6.03;4.07;;;13.70;41.50;;;;;;5417211;26;20454;-76
2024/04/24 11:39:14;;;;;;;7.50;4.47;;;13.80;41.60;;;;;;5416137;26;20470;-77
2024/04/24 11:41:44;;;;;;;6.57;4.30;;;13.80;40.60;;;;;;5417211;26;20450;-76
2024/04/24 11:44:14;;;;;;;6.90;4.43;;;13.70;39.30;;;;;;5416577;26;20458;-75
2024/04/24 11:46:49;;;;;;;4.90;3.40;;;13.60;38.70;;;;;;5416318;26;20522;-76
2024/04/24 11:49:23;;;;;;;5.47;4.00;;;13.50;41.00;;;;;;5416287;26;20999;-74
2024/04/24 11:51:53;;;;;;;6.27;4.43;;;13.40;39.20;;;;;;5415898;26;20458;-75
2024/04/24 11:54:21;;;;;;;5.57;4.20;;;13.50;41.30;;;;;;5415386;26;20473;-75
2024/04/24 11:56:50;;;;;;;6.97;3.83;;;13.50;37.00;;;;;;5416104;26;20512;-76
2024/04/24 11:59:19;;;;;;;5.50;3.90;;;13.40;39.10;;;;;;5416525;26;20561;-76
2024/04/24 12:01:50;;;;;;;6.07;3.97;;;13.60;39.10;;;;;;5416504;26;20443;-76
2024/04/24 12:04:19;;;;;;;5.80;3.70;;;13.70;39.80;;;;;;5416066;26;20514;-75
2024/04/24 12:06:48;;;;;;;4.60;3.50;;;13.90;37.90;;;;;;5416209;26;20453;-75
2024/04/24 12:09:17;;;;;;;6.23;4.50;;;13.80;38.70;;;;;;5416229;26;20510;-75
2024/04/24 12:11:48;;;;;;;5.40;4.00;;;13.90;37.90;;;;;;5415966;26;20572;-76
2024/04/24 12:14:19;;;;;;;6.90;4.13;;;13.80;37.50;;;;;;5416106;26;20514;-75
2024/04/24 12:16:51;;;;;;;6.40;4.20;;;13.80;37.30;;;;;;5416317;26;20503;-75
2024/04/24 12:19:19;;;;;;;6.50;4.03;;;13.50;36.80;;;;;;5416156;26;20968;-76
2024/04/24 12:21:48;;;;;;;5.27;4.07;;;13.40;38.50;;;;;;5415896;26;20506;-75
2024/04/24 12:24:17;;;;;;;5.70;4.60;;;13.30;37.60;;;;;;5415892;26;20449;-76
2024/04/24 12:26:45;;;;;;;4.43;3.20;;;13.30;38.10;;;;;;5415712;26;20797;-77
2024/04/24 12:29:15;;;;;;;5.40;3.83;;;13.30;37.50;;;;;;5415970;26;20984;-75
2024/04/24 12:31:43;;;;;;;6.43;4.37;;;13.40;36.60;;;;;;5413827;26;20936;-75
2024/04/24 12:34:17;;;;;;;5.17;3.83;;;13.30;38.60;;;;;;5419606;26;20484;-75
2024/04/24 12:36:51;;;;;;;5.37;2.87;;;13.50;38.30;;;;;;5419393;26;20457;-77
2024/04/24 12:39:19;;;;;;;4.23;2.90;;;13.60;35.40;;;;;;5419673;26;20453;-76
2024/04/24 12:41:48;;;;;;;3.20;2.43;;;13.60;33.90;;;;;;5419401;26;20593;-76
2024/04/24 12:44:17;;;;;;;5.17;2.63;;;13.60;36.70;;;;;;5419017;26;20498;-75
2024/04/24 12:46:46;;;;;;;3.90;2.70;;;13.80;36.30;;;;;;5419284;26;20446;-75
2024/04/24 12:49:17;;;;;;;4.60;3.00;;;14.00;36.20;;;;;;5419071;26;20839;-75
2024/04/24 12:51:46;;;;;;;4.40;3.00;;;14.00;34.20;;;;;;5419015;26;20502;-76
2024/04/24 12:54:14;;;;;;;3.80;2.77;;;14.00;35.90;;;;;;5419802;26;20450;-76
2024/04/24 12:56:43;;;;;;;5.47;3.33;;;14.10;35.90;;;;;;5418767;26;20518;-78